Time;durP1;ratioP1;P1;durP2;ratioP2;P2;SDS_P1;SDS_P2;PMS_P1;PMS_P2;Temp;Humidity;BMP_temperature;BMP_pressure;BME280_temperature;BME280_humidity;BME280_pressure;Samples;Min_cycle;Max_cycle;Signal;HPM_P1;HPM_P2
2021/08/10 00:02:08;;;;;;;0.10;0.10;;;;;;;21.38;77.68;99728.53;4800812;29;20085;-80
2021/08/10 00:04:34;;;;;;;0.10;0.10;;;;;;;21.36;77.96;99727.94;4788710;29;20137;-80
2021/08/10 00:07:00;;;;;;;0.10;0.10;;;;;;;21.31;78.11;99730.44;4770603;29;21618;-77
2021/08/10 00:09:26;;;;;;;0.00;0.00;;;;;;;21.17;78.71;99723.31;4796699;29;20039;-78
2021/08/10 00:11:52;;;;;;;0.10;0.10;;;;;;;21.17;78.98;99731.56;4800500;29;20039;-78
2021/08/10 00:14:18;;;;;;;0.10;0.10;;;;;;;21.15;79.11;99728.22;4786764;29;20418;-80
2021/08/10 00:16:43;;;;;;;0.10;0.10;;;;;;;21.08;79.26;99724.66;4783264;29;20067;-80
2021/08/10 00:19:09;;;;;;;0.00;0.00;;;;;;;21.04;79.66;99728.91;4784944;29;20074;-79
2021/08/10 00:21:35;;;;;;;0.10;0.10;;;;;;;21.03;79.60;99727.22;4755791;29;20513;-79
2021/08/10 00:24:01;;;;;;;0.10;0.10;;;;;;;21.05;79.89;99725.06;4800648;29;20073;-77
2021/08/10 00:26:27;;;;;;;0.10;0.10;;;;;;;21.06;79.70;99726.75;4803740;29;20046;-78
2021/08/10 00:28:53;;;;;;;0.10;0.10;;;;;;;21.09;79.72;99729.91;4806875;29;20126;-78
2021/08/10 00:31:19;;;;;;;0.10;0.10;;;;;;;21.06;79.87;99715.75;4793555;29;20047;-77
2021/08/10 00:33:45;;;;;;;0.10;0.10;;;;;;;21.07;79.76;99720.22;4761961;29;20425;-77
2021/08/10 00:36:12;;;;;;;0.10;0.10;;;;;;;21.08;79.88;99719.16;4790761;29;20059;-78
2021/08/10 00:38:39;;;;;;;0.10;0.10;;;;;;;21.06;79.77;99722.13;4793106;29;20081;-77
2021/08/10 00:41:05;;;;;;;0.10;0.10;;;;;;;21.01;80.21;99724.66;4768755;29;20114;-76
2021/08/10 00:43:37;;;;;;;0.10;0.10;;;;;;;21.00;80.38;99716.66;4786259;29;20052;-76
2021/08/10 00:46:15;;;;;;;0.10;0.10;;;;;;;20.98;80.31;99718.75;4774315;29;20103;-76
2021/08/10 00:48:43;;;;;;;0.10;0.10;;;;;;;20.91;80.39;99714.16;4788832;29;20103;-77
2021/08/10 00:51:11;;;;;;;0.10;0.10;;;;;;;20.83;80.78;99711.63;4789456;29;20074;-77
2021/08/10 00:53:39;;;;;;;0.10;0.10;;;;;;;20.82;80.79;99720.94;4756171;29;20045;-79
2021/08/10 00:56:08;;;;;;;0.10;0.10;;;;;;;20.78;81.27;99716.94;4773938;29;20544;-77
2021/08/10 00:58:37;;;;;;;0.10;0.10;;;;;;;20.76;81.57;99721.78;4785410;29;20165;-78
2021/08/10 01:01:06;;;;;;;0.10;0.10;;;;;;;20.70;81.60;99715.25;4807089;29;20039;-77
2021/08/10 01:03:32;;;;;;;0.10;0.10;;;;;;;20.67;81.80;99720.34;4743919;29;20049;-77
2021/08/10 01:06:01;;;;;;;0.10;0.10;;;;;;;20.63;82.04;99722.69;4759189;29;20612;-77
2021/08/10 01:08:46;;;;;;;0.10;0.10;;;;;;;20.62;81.97;99714.63;4773460;29;20740;-77
2021/08/10 01:11:17;;;;;;;0.10;0.10;;;;;;;20.57;82.11;99711.69;4767889;29;20046;-77
2021/08/10 01:13:56;;;;;;;0.10;0.10;;;;;;;20.50;82.41;99721.84;4802968;29;20065;-77
2021/08/10 01:16:27;;;;;;;0.10;0.10;;;;;;;20.44;82.55;99718.88;4750618;29;20193;-77
2021/08/10 01:18:57;;;;;;;0.10;0.10;;;;;;;20.40;83.04;99711.25;4769131;29;20497;-80
2021/08/10 01:21:27;;;;;;;0.10;0.10;;;;;;;20.37;82.96;99719.97;4779017;29;20145;-77
2021/08/10 01:24:17;;;;;;;0.00;0.00;;;;;;;20.27;83.68;99706.66;4772902;29;20051;-77
2021/08/10 01:26:54;;;;;;;0.10;0.10;;;;;;;20.23;83.74;99706.22;4779757;29;20141;-78
2021/08/10 01:29:38;;;;;;;0.10;0.10;;;;;;;20.20;83.74;99708.56;4755840;29;20400;-78
2021/08/10 01:32:04;;;;;;;0.10;0.10;;;;;;;20.19;83.74;99710.47;4765664;29;20051;-78
2021/08/10 01:34:37;;;;;;;0.10;0.10;;;;;;;20.18;84.15;99718.91;4781133;29;20512;-79
2021/08/10 01:37:26;;;;;;;0.10;0.10;;;;;;;20.15;84.24;99713.84;4791181;29;20158;-78
2021/08/10 01:39:56;;;;;;;0.10;0.10;;;;;;;20.09;84.09;99709.19;4760202;30;20486;-77
2021/08/10 01:42:26;;;;;;;0.10;0.10;;;;;;;20.07;84.39;99712.13;4757684;29;20058;-76
2021/08/10 01:44:57;;;;;;;0.10;0.10;;;;;;;20.06;84.67;99715.09;4793499;29;20046;-79
2021/08/10 01:47:26;;;;;;;0.10;0.10;;;;;;;20.06;84.73;99715.09;4783772;29;20520;-79
2021/08/10 01:49:53;;;;;;;0.10;0.10;;;;;;;20.02;84.92;99709.19;4786740;29;20035;-80
2021/08/10 01:52:21;;;;;;;0.00;0.00;;;;;;;19.99;85.08;99713.19;4791337;29;20422;-77
2021/08/10 01:54:52;;;;;;;0.10;0.10;;;;;;;19.95;84.92;99706.44;4758072;29;20039;-78
2021/08/10 01:57:19;;;;;;;0.10;0.10;;;;;;;19.95;85.17;99711.94;4786810;29;20051;-75
2021/08/10 01:59:47;;;;;;;0.10;0.10;;;;;;;19.95;84.98;99720.16;4751565;29;20043;-76
2021/08/10 02:02:14;;;;;;;0.10;0.10;;;;;;;19.94;85.19;99714.91;4771811;29;20057;-77
2021/08/10 02:04:44;;;;;;;0.10;0.10;;;;;;;19.92;85.53;99709.59;4755351;29;20038;-77
2021/08/10 02:07:10;;;;;;;0.10;0.10;;;;;;;19.91;85.51;99718.06;4786157;29;20054;-80
2021/08/10 02:09:37;;;;;;;0.10;0.10;;;;;;;19.90;85.04;99709.00;4771779;29;20369;-78
2021/08/10 02:12:04;;;;;;;0.10;0.10;;;;;;;19.93;85.18;99705.84;4757995;29;20055;-77
2021/08/10 02:14:37;;;;;;;0.10;0.10;;;;;;;19.94;85.33;99706.66;4741455;29;20131;-78
2021/08/10 02:17:14;;;;;;;0.10;0.10;;;;;;;19.92;85.05;99709.59;4787602;29;20481;-77
2021/08/10 02:19:49;;;;;;;0.10;0.10;;;;;;;19.92;84.95;99704.13;4787702;29;20734;-77
2021/08/10 02:22:16;;;;;;;0.10;0.10;;;;;;;19.96;85.10;99697.19;4766228;29;20137;-76
2021/08/10 02:25:10;;;;;;;0.10;0.10;;;;;;;20.01;84.83;99707.53;4783449;29;20050;-79
2021/08/10 02:27:51;;;;;;;0.10;0.10;;;;;;;20.03;84.45;99707.28;4808904;29;20039;-78
2021/08/10 02:30:33;;;;;;;0.10;0.10;;;;;;;20.03;84.47;99705.38;4770472;29;20043;-77
2021/08/10 02:33:04;;;;;;;0.10;0.10;;;;;;;20.05;84.66;99707.94;4795395;29;20051;-75
2021/08/10 02:35:30;;;;;;;0.10;0.10;;;;;;;20.09;84.20;99700.97;4763601;29;20045;-78
2021/08/10 02:38:00;;;;;;;0.10;0.10;;;;;;;20.13;83.86;99704.97;4786866;29;20156;-80
2021/08/10 02:40:29;;;;;;;0.10;0.10;;;;;;;20.17;83.57;99717.22;4783090;29;20297;-78
2021/08/10 02:42:59;;;;;;;0.10;0.10;;;;;;;20.21;83.72;99712.97;4765150;29;20157;-79
2021/08/10 02:45:25;;;;;;;0.10;0.10;;;;;;;20.21;83.49;99708.34;4768957;29;20049;-79
2021/08/10 02:47:55;;;;;;;0.10;0.10;;;;;;;20.27;83.07;99706.66;4761403;29;20063;-77
2021/08/10 02:50:29;;;;;;;0.10;0.10;;;;;;;20.34;82.66;99702.00;4752990;29;20122;-79
2021/08/10 02:52:55;;;;;;;0.10;0.10;;;;;;;20.36;82.98;99705.34;4750651;29;20054;-78
2021/08/10 02:55:24;;;;;;;0.10;0.10;;;;;;;20.40;82.85;99706.66;4780354;29;20047;-76
2021/08/10 02:58:07;;;;;;;0.10;0.10;;;;;;;20.46;82.55;99708.50;4777596;29;20437;-81
2021/08/10 03:00:51;;;;;;;0.10;0.10;;;;;;;20.56;81.15;99715.50;4774144;29;20070;-81
2021/08/10 03:03:20;;;;;;;0.10;0.10;;;;;;;20.70;79.87;99711.69;4756940;29;20085;-78
2021/08/10 03:05:55;;;;;;;0.10;0.10;;;;;;;20.81;78.74;99701.94;4778512;29;20047;-80
2021/08/10 03:08:30;;;;;;;0.10;0.10;;;;;;;20.94;77.29;99708.19;4775202;29;20054;-78
2021/08/10 03:10:56;;;;;;;0.10;0.10;;;;;;;21.09;76.57;99704.34;4781153;29;20498;-80
2021/08/10 03:13:25;;;;;;;0.10;0.10;;;;;;;21.23;74.99;99705.97;4781630;29;20145;-79
2021/08/10 03:15:55;;;;;;;0.10;0.10;;;;;;;21.38;74.48;99703.78;4768332;29;20498;-80
2021/08/10 03:18:26;;;;;;;0.10;0.10;;;;;;;21.51;73.80;99699.28;4769963;29;20097;-79
2021/08/10 03:20:57;;;;;;;0.10;0.10;;;;;;;21.63;72.77;99694.75;4782564;29;20035;-81
2021/08/10 03:23:23;;;;;;;0.10;0.10;;;;;;;21.76;72.22;99700.19;4768031;29;20130;-81
2021/08/10 03:25:50;;;;;;;0.10;0.10;;;;;;;21.89;71.67;99688.19;4775028;29;20577;-79
2021/08/10 03:28:16;;;;;;;0.10;0.10;;;;;;;22.03;71.05;99694.44;4768378;29;20047;-79
2021/08/10 03:30:43;;;;;;;0.10;0.10;;;;;;;22.14;70.60;99696.50;4777518;29;20046;-79
2021/08/10 03:33:10;;;;;;;0.15;0.15;;;;;;;22.33;69.90;99703.72;4765944;29;20608;-79
2021/08/10 03:35:37;;;;;;;0.10;0.10;;;;;;;22.53;69.30;99694.44;4778149;29;20133;-79
2021/08/10 03:38:04;;;;;;;0.10;0.10;;;;;;;22.72;68.34;99696.13;4781186;29;20059;-80
2021/08/10 03:40:31;;;;;;;0.10;0.10;;;;;;;22.88;67.22;99703.75;4768942;29;20043;-79
2021/08/10 03:42:59;;;;;;;0.10;0.10;;;;;;;23.07;65.61;99695.50;4782385;29;20050;-81
2021/08/10 03:45:29;;;;;;;0.15;0.15;;;;;;;23.28;64.22;99691.41;4741722;29;20035;-79
2021/08/10 03:47:55;;;;;;;0.15;0.15;;;;;;;23.42;63.47;99683.81;4771556;29;20044;-78
2021/08/10 03:50:22;;;;;;;0.20;0.20;;;;;;;23.64;62.25;99690.47;4793112;29;20054;-81
2021/08/10 03:52:49;;;;;;;0.10;0.10;;;;;;;23.86;60.78;99692.72;4751967;29;20216;-79
2021/08/10 03:55:15;;;;;;;0.20;0.20;;;;;;;24.05;60.47;99691.53;4779053;29;20477;-81
2021/08/10 03:57:45;;;;;;;0.10;0.10;;;;;;;24.24;59.65;99689.50;4796794;29;20142;-82
2021/08/10 04:00:12;;;;;;;0.20;0.20;;;;;;;24.43;59.30;99695.81;4779226;29;20047;-79
2021/08/10 04:02:50;;;;;;;0.17;0.17;;;;;;;24.61;58.20;99694.81;4776320;29;20125;-80
2021/08/10 04:05:18;;;;;;;0.10;0.10;;;;;;;24.81;57.10;99694.44;4773705;29;20119;-81
2021/08/10 04:07:45;;;;;;;0.10;0.10;;;;;;;24.95;56.45;99695.84;4779074;29;20112;-81
2021/08/10 04:10:11;;;;;;;0.10;0.10;;;;;;;25.08;55.03;99695.56;4780556;29;20043;-81
2021/08/10 04:12:37;;;;;;;0.20;0.20;;;;;;;25.23;55.71;99704.22;4768377;29;20051;-78
2021/08/10 04:15:06;;;;;;;0.20;0.20;;;;;;;25.37;54.28;99695.63;4787450;29;20047;-80
2021/08/10 04:17:36;;;;;;;0.20;0.20;;;;;;;25.49;54.41;99682.59;4774690;29;20051;-81
2021/08/10 04:20:05;;;;;;;0.20;0.20;;;;;;;25.50;53.79;99681.47;4788473;29;20142;-82
2021/08/10 04:22:32;;;;;;;0.20;0.20;;;;;;;25.52;53.33;99679.28;4780158;29;20061;-81
2021/08/10 04:25:02;;;;;;;0.20;0.20;;;;;;;25.57;53.95;99670.25;4794683;29;20043;-82
2021/08/10 04:27:29;;;;;;;0.20;0.20;;;;;;;25.69;53.26;99674.63;4800074;29;20052;-82
2021/08/10 04:29:59;;;;;;;0.20;0.20;;;;;;;25.92;52.71;99681.13;4779880;29;20097;-83
2021/08/10 04:32:26;;;;;;;0.20;0.20;;;;;;;26.10;53.22;99668.97;4782290;29;20047;-82
2021/08/10 04:34:53;;;;;;;0.20;0.20;;;;;;;26.37;53.02;99678.28;4779774;29;20043;-80
2021/08/10 04:37:20;;;;;;;0.20;0.20;;;;;;;26.59;52.29;99678.34;4786729;29;20104;-83
2021/08/10 04:39:49;;;;;;;0.20;0.20;;;;;;;26.85;51.52;99673.16;4754718;29;20072;-81
2021/08/10 04:42:24;;;;;;;0.20;0.20;;;;;;;27.08;50.46;99664.56;4764802;29;20228;-81
2021/08/10 04:44:50;;;;;;;0.20;0.20;;;;;;;27.26;49.56;99671.72;4765556;29;20058;-80
2021/08/10 04:47:17;;;;;;;0.20;0.20;;;;;;;27.43;49.88;99655.00;4777307;29;20134;-82
2021/08/10 04:49:47;;;;;;;0.20;0.20;;;;;;;27.55;49.23;99658.44;4786639;29;20050;-81
2021/08/10 04:52:13;;;;;;;0.20;0.20;;;;;;;27.60;49.13;99661.25;4785206;29;20054;-81
2021/08/10 04:54:39;;;;;;;0.10;0.10;;;;;;;27.35;49.63;99663.75;4777717;29;20078;-80
2021/08/10 04:57:06;;;;;;;0.10;0.10;;;;;;;26.96;50.82;99672.19;4785875;29;20070;-81
2021/08/10 04:59:34;;;;;;;0.10;0.10;;;;;;;26.91;51.79;99669.31;4783961;29;20051;-81
2021/08/10 05:02:00;;;;;;;0.20;0.20;;;;;;;26.91;51.96;99675.75;4799344;29;20058;-80
2021/08/10 05:04:28;;;;;;;0.20;0.20;;;;;;;27.11;51.25;99665.97;4778487;29;20134;-80
2021/08/10 05:06:55;;;;;;;0.10;0.10;;;;;;;27.14;51.03;99660.78;4773995;29;20055;-80
2021/08/10 05:09:22;;;;;;;0.10;0.10;;;;;;;26.95;51.16;99656.63;4778928;29;20054;-82
2021/08/10 05:11:48;;;;;;;0.30;0.30;;;;;;;27.10;50.93;99656.81;4790569;29;20047;-82
2021/08/10 05:14:16;;;;;;;0.22;0.22;;;;;;;27.38;51.05;99664.09;4778644;29;20043;-80
2021/08/10 05:16:44;;;;;;;0.22;0.22;;;;;;;27.59;50.42;99662.34;4785682;29;20038;-84
2021/08/10 05:19:14;;;;;;;0.10;0.10;;;;;;;27.78;49.46;99662.00;4779101;29;20044;-80
2021/08/10 05:21:42;;;;;;;0.10;0.10;;;;;;;27.65;48.40;99660.47;4778095;29;20093;-78
2021/08/10 05:24:08;;;;;;;0.10;0.10;;;;;;;27.97;47.82;99652.16;4792740;29;20517;-81
2021/08/10 05:26:35;;;;;;;0.20;0.20;;;;;;;27.94;48.58;99655.50;4779569;29;20058;-82
2021/08/10 05:29:01;;;;;;;0.30;0.30;;;;;;;28.20;48.00;99652.91;4767294;29;20066;-78
2021/08/10 05:31:27;;;;;;;0.10;0.10;;;;;;;27.79;49.19;99655.34;4770403;29;20182;-81
2021/08/10 05:33:53;;;;;;;0.10;0.10;;;;;;;27.38;50.63;99663.25;4781880;29;20390;-81
2021/08/10 05:36:20;;;;;;;0.20;0.20;;;;;;;27.69;49.70;99656.06;4778090;29;20073;-86
2021/08/10 05:38:49;;;;;;;0.40;0.40;;;;;;;28.29;48.69;99656.84;4785586;29;20051;-81
2021/08/10 05:41:16;;;;;;;0.10;0.10;;;;;;;28.19;48.39;99656.78;4770171;30;20055;-80
2021/08/10 05:43:44;;;;;;;0.40;0.40;;;;;;;28.00;49.01;99650.78;4772440;29;20043;-81
2021/08/10 05:46:11;;;;;;;0.10;0.10;;;;;;;28.15;48.47;99655.63;4781967;29;20149;-83
2021/08/10 05:48:38;;;;;;;0.10;0.10;;;;;;;27.82;49.28;99658.44;4804154;29;20042;-83
2021/08/10 05:51:07;;;;;;;0.10;0.10;;;;;;;27.34;50.57;99651.81;4777126;29;20047;-81
2021/08/10 05:53:36;;;;;;;0.10;0.10;;;;;;;27.12;51.50;99665.75;4778153;29;20046;-82
2021/08/10 05:56:05;;;;;;;0.10;0.10;;;;;;;27.88;49.28;99653.75;4771949;29;20109;-84
2021/08/10 05:58:34;;;;;;;0.40;0.40;;;;;;;28.85;47.14;99657.22;4744100;29;20134;-82
2021/08/10 06:01:04;;;;;;;0.45;0.45;;;;;;;29.61;45.23;99650.22;4768974;29;20055;-83
2021/08/10 06:03:31;;;;;;;0.10;0.10;;;;;;;30.13;44.12;99654.69;4798595;29;20047;-81
2021/08/10 06:05:58;;;;;;;0.35;0.35;;;;;;;29.93;44.26;99653.59;4797874;29;20932;-82
2021/08/10 06:08:31;;;;;;;0.10;0.10;;;;;;;29.23;45.83;99657.94;4770900;29;20145;-83
2021/08/10 06:10:58;;;;;;;0.50;0.50;;;;;;;29.87;44.50;99656.66;4767116;29;20119;-82
2021/08/10 06:13:24;;;;;;;0.50;0.50;;;;;;;30.76;41.89;99660.78;4770813;29;20086;-83
2021/08/10 06:15:51;;;;;;;0.50;0.50;;;;;;;31.46;40.20;99664.38;4754781;29;20421;-82
2021/08/10 06:18:17;;;;;;;0.50;0.50;;;;;;;31.93;39.62;99662.13;4788065;29;20054;-83
2021/08/10 06:20:47;;;;;;;0.40;0.40;;;;;;;32.51;38.06;99661.34;4761925;29;20489;-81
2021/08/10 06:23:13;;;;;;;0.50;0.50;;;;;;;32.85;37.47;99669.63;4795493;29;20046;-83
2021/08/10 06:25:46;;;;;;;0.50;0.50;;;;;;;32.63;36.73;99653.34;4799111;29;20470;-83
2021/08/10 06:28:20;;;;;;;0.50;0.50;;;;;;;33.17;35.96;99656.94;4758476;29;20050;-83
2021/08/10 06:30:51;;;;;;;0.50;0.50;;;;;;;33.30;35.52;99657.00;4798922;29;20186;-83
2021/08/10 06:33:26;;;;;;;0.45;0.45;;;;;;;33.62;34.75;99657.41;4787521;29;20054;-81
2021/08/10 06:35:58;;;;;;;0.50;0.50;;;;;;;33.89;34.59;99657.53;4804262;29;20170;-84
2021/08/10 06:38:27;;;;;;;0.50;0.50;;;;;;;33.93;34.05;99652.13;4787680;29;20142;-83
2021/08/10 06:40:54;;;;;;;0.30;0.30;;;;;;;34.22;33.71;99661.19;4780041;29;20053;-84
2021/08/10 06:43:26;;;;;;;0.10;0.10;;;;;;;33.72;34.16;99652.50;4976504;24;20087;-84
2021/08/10 06:49:18;;;;;;;0.10;0.10;;;;;;;31.75;38.75;99655.25;5710190;24;20522;-86
2021/08/10 06:51:46;;;;;;;0.10;0.10;;;;;;;31.27;40.00;99665.31;5004324;24;20029;-82
2021/08/10 06:54:15;;;;;;;0.20;0.20;;;;;;;31.06;40.65;99664.56;4770625;29;20089;-85
2021/08/10 06:56:51;;;;;;;0.50;0.50;;;;;;;31.34;40.01;99660.28;4806403;29;20050;-86
2021/08/10 06:59:25;;;;;;;0.70;0.70;;;;;;;32.94;37.19;99658.56;4786994;29;20049;-86
2021/08/10 07:01:58;;;;;;;0.60;0.60;;;;;;;33.03;36.68;99648.41;4809888;29;20039;-86
2021/08/10 07:04:27;;;;;;;0.60;0.60;;;;;;;33.91;34.04;99643.22;4779075;29;20051;-87
2021/08/10 07:06:55;;;;;;;0.60;0.60;;;;;;;34.73;31.65;99649.03;4794276;29;20050;-85
2021/08/10 07:09:27;;;;;;;0.70;0.70;;;;;;;35.50;29.95;99641.78;4782471;29;20059;-86
2021/08/10 07:11:54;;;;;;;0.70;0.70;;;;;;;36.01;30.07;99637.75;4776006;29;20046;-84
2021/08/10 07:14:21;;;;;;;0.60;0.60;;;;;;;36.12;30.17;99639.13;4799574;29;20158;-84
2021/08/10 07:16:49;;;;;;;0.40;0.40;;;;;;;36.42;30.15;99633.84;4772156;29;20042;-85
2021/08/10 07:19:17;;;;;;;0.40;0.40;;;;;;;36.39;30.56;99643.78;4810915;29;20042;-86
2021/08/10 07:21:47;;;;;;;0.60;0.60;;;;;;;36.91;29.92;99641.19;4799413;29;20020;-86
2021/08/10 07:24:20;;;;;;;0.50;0.50;;;;;;;36.97;29.30;99644.75;4803103;29;20128;-86
2021/08/10 07:26:48;;;;;;;0.40;0.40;;;;;;;37.17;28.66;99641.28;4795211;29;20047;-83
2021/08/10 07:29:16;;;;;;;0.40;0.40;;;;;;;37.02;28.72;99636.13;4783823;29;20039;-86
2021/08/10 07:31:44;;;;;;;0.50;0.50;;;;;;;37.20;29.25;99647.44;4779794;29;20080;-82
2021/08/10 07:34:17;;;;;;;0.50;0.50;;;;;;;37.52;28.00;99647.00;4797869;29;20042;-87
2021/08/10 07:36:46;;;;;;;0.50;0.50;;;;;;;37.41;28.74;99654.13;4800129;29;20134;-85
2021/08/10 07:39:16;;;;;;;0.68;0.68;;;;;;;37.27;28.54;99639.31;4778762;29;20050;-84
2021/08/10 07:41:43;;;;;;;0.68;0.68;;;;;;;37.34;29.00;99646.13;4795106;29;20047;-85
2021/08/10 07:44:11;;;;;;;0.60;0.60;;;;;;;37.88;27.65;99643.00;4776831;29;20398;-84
2021/08/10 07:46:41;;;;;;;0.70;0.70;;;;;;;37.82;27.66;99638.72;4782977;29;20074;-84
2021/08/10 07:49:16;;;;;;;0.70;0.70;;;;;;;37.68;27.44;99655.81;4756293;29;20095;-83
2021/08/10 07:51:44;;;;;;;0.60;0.60;;;;;;;37.85;27.03;99654.97;4774347;29;20129;-83
2021/08/10 07:54:12;;;;;;;0.65;0.65;;;;;;;37.11;28.62;99653.88;4792010;29;20117;-83
2021/08/10 07:56:40;;;;;;;0.63;0.63;;;;;;;36.48;29.96;99641.03;4791043;29;20130;-83
2021/08/10 07:59:07;;;;;;;0.30;0.30;;;;;;;36.26;30.36;99638.22;4759007;29;20341;-84
2021/08/10 08:01:35;;;;;;;0.68;0.68;;;;;;;36.21;30.59;99633.59;4780830;29;20450;-85
2021/08/10 08:04:03;;;;;;;0.50;0.50;;;;;;;36.05;31.31;99626.69;4767352;29;20043;-83
2021/08/10 08:06:31;;;;;;;0.30;0.30;;;;;;;35.60;32.53;99632.28;4793738;29;20052;-82
2021/08/10 08:08:58;;;;;;;0.40;0.40;;;;;;;35.38;32.86;99630.25;4801405;29;20107;-83
2021/08/10 08:11:25;;;;;;;0.30;0.30;;;;;;;35.57;32.46;99628.13;4770037;29;20039;-84
2021/08/10 08:13:52;;;;;;;0.30;0.30;;;;;;;35.69;32.91;99619.13;4785905;29;20043;-84
2021/08/10 08:16:20;;;;;;;0.60;0.60;;;;;;;35.65;32.55;99620.91;4761951;29;20183;-84
2021/08/10 08:18:46;;;;;;;0.60;0.60;;;;;;;35.92;32.10;99611.50;4802867;29;20456;-85
2021/08/10 08:21:18;;;;;;;0.60;0.60;;;;;;;36.46;31.69;99615.16;4771704;29;20509;-86
2021/08/10 08:23:49;;;;;;;0.50;0.50;;;;;;;37.32;30.44;99622.22;4784966;29;20059;-84
2021/08/10 08:26:19;;;;;;;0.40;0.40;;;;;;;36.74;29.64;99615.78;4788588;29;20066;-82
2021/08/10 08:28:46;;;;;;;0.60;0.60;;;;;;;36.94;29.48;99608.72;4790560;29;20059;-85
2021/08/10 08:31:14;;;;;;;0.60;0.60;;;;;;;36.91;29.72;99615.00;4786756;29;20065;-81
2021/08/10 08:33:43;;;;;;;0.40;0.40;;;;;;;37.35;29.87;99613.94;4801291;29;20058;-85
2021/08/10 08:36:10;;;;;;;0.50;0.50;;;;;;;37.49;29.66;99613.00;4776527;29;20049;-84
2021/08/10 08:38:37;;;;;;;0.50;0.50;;;;;;;37.67;28.80;99619.47;4776983;29;20038;-83
2021/08/10 08:41:05;;;;;;;0.50;0.50;;;;;;;37.20;30.22;99622.06;4777540;29;20489;-86
2021/08/10 08:43:32;;;;;;;0.40;0.40;;;;;;;37.35;29.54;99625.22;4776505;29;20063;-82
2021/08/10 08:45:58;;;;;;;0.40;0.40;;;;;;;37.04;29.69;99627.31;4799910;29;20043;-83
2021/08/10 08:48:32;;;;;;;0.60;0.60;;;;;;;37.60;28.87;99628.44;4768798;29;20055;-82
2021/08/10 08:51:01;;;;;;;0.40;0.40;;;;;;;38.20;28.84;99626.69;4785420;29;20053;-80
2021/08/10 08:53:27;;;;;;;0.80;0.80;;;;;;;38.10;28.62;99622.22;4792646;29;20049;-82
2021/08/10 08:55:54;;;;;;;0.20;0.20;;;;;;;37.11;30.14;99631.31;4789210;29;20050;-82
2021/08/10 08:58:22;;;;;;;0.20;0.20;;;;;;;36.61;30.94;99623.19;4769252;29;20567;-82
2021/08/10 09:00:50;;;;;;;0.20;0.20;;;;;;;35.14;32.55;99631.34;4761663;29;20049;-81
2021/08/10 09:03:17;;;;;;;0.30;0.30;;;;;;;34.80;32.17;99632.59;4763241;29;20394;-82
2021/08/10 09:05:50;;;;;;;0.20;0.20;;;;;;;34.19;33.65;99628.16;4779217;29;20051;-82
2021/08/10 09:08:34;;;;;;;0.40;0.40;;;;;;;35.19;33.10;99634.03;4778617;29;20091;-82
2021/08/10 09:11:09;;;;;;;0.20;0.20;;;;;;;34.91;33.14;99629.56;4760455;29;20081;-85
2021/08/10 09:13:42;;;;;;;0.20;0.20;;;;;;;34.78;33.65;99631.25;4768239;29;20043;-84
2021/08/10 09:16:13;;;;;;;0.10;0.10;;;;;;;34.58;33.80;99626.88;4767167;29;20050;-83
2021/08/10 09:18:40;;;;;;;0.10;0.10;;;;;;;33.84;35.47;99624.78;4780606;29;20047;-82
2021/08/10 09:21:19;;;;;;;0.10;0.10;;;;;;;32.71;37.05;99627.50;4797074;29;20058;-83
2021/08/10 09:23:58;;;;;;;0.10;0.10;;;;;;;32.44;37.10;99627.25;4745731;29;20402;-82
2021/08/10 09:26:38;;;;;;;0.38;0.10;;;;;;;32.36;37.76;99626.75;4773677;29;20046;-84
2021/08/10 09:29:08;;;;;;;0.10;0.10;;;;;;;31.89;39.58;99639.50;4781862;29;20088;-83
2021/08/10 09:31:42;;;;;;;0.10;0.10;;;;;;;31.72;40.44;99629.81;4780310;29;20085;-80
2021/08/10 09:34:26;;;;;;;0.10;0.10;;;;;;;31.43;40.26;99637.00;4762828;29;20102;-79
2021/08/10 09:36:55;;;;;;;0.10;0.10;;;;;;;31.20;41.26;99629.31;4770276;29;20051;-82
2021/08/10 09:39:33;;;;;;;0.20;0.20;;;;;;;31.21;41.49;99630.97;4762604;29;20070;-81
2021/08/10 09:42:05;;;;;;;0.30;0.30;;;;;;;31.62;40.92;99627.94;4775371;29;20129;-82
2021/08/10 09:44:39;;;;;;;0.30;0.30;;;;;;;31.74;40.01;99624.75;4752637;29;20043;-78
2021/08/10 09:47:20;;;;;;;0.50;0.50;;;;;;;32.34;38.04;99626.19;4743548;29;20064;-81
2021/08/10 09:49:48;;;;;;;0.70;0.70;;;;;;;33.01;36.63;99631.06;4749041;29;20470;-78
2021/08/10 09:52:29;;;;;;;0.70;0.70;;;;;;;32.71;36.97;99633.09;4765691;30;20135;-82
2021/08/10 09:55:12;;;;;;;0.60;0.60;;;;;;;33.50;35.15;99635.47;4767145;29;20051;-83
2021/08/10 09:57:59;;;;;;;0.60;0.60;;;;;;;34.11;33.93;99626.03;4760621;29;20470;-81
2021/08/10 10:00:42;;;;;;;0.20;0.20;;;;;;;34.40;33.02;99627.75;4765029;30;20047;-81
2021/08/10 10:03:20;;;;;;;0.20;0.20;;;;;;;33.75;33.35;99626.63;4747660;30;20153;-81
2021/08/10 10:05:51;;;;;;;0.20;0.20;;;;;;;33.64;34.62;99632.69;4766741;30;20664;-79
2021/08/10 10:08:25;;;;;;;0.20;0.20;;;;;;;33.00;35.72;99629.41;4769491;29;20062;-82
2021/08/10 10:10:55;;;;;;;0.20;0.20;;;;;;;32.90;35.82;99633.97;4754525;29;20039;-81
2021/08/10 10:13:23;;;;;;;0.20;0.20;;;;;;;32.86;36.02;99629.25;4769797;29;20249;-83
2021/08/10 10:15:50;;;;;;;0.30;0.30;;;;;;;31.82;37.65;99633.38;4779115;29;20039;-83
2021/08/10 10:18:18;;;;;;;0.30;0.30;;;;;;;32.36;36.93;99617.50;4775555;29;20048;-81
2021/08/10 10:20:45;;;;;;;0.20;0.20;;;;;;;32.89;36.72;99640.69;4773847;29;20048;-82
2021/08/10 10:23:25;;;;;;;0.38;0.38;;;;;;;32.11;36.98;99646.59;4776391;29;20112;-80
2021/08/10 10:25:54;;;;;;;0.20;0.20;;;;;;;31.80;38.07;99634.78;4747777;29;20071;-81
2021/08/10 10:28:21;;;;;;;0.10;0.10;;;;;;;31.14;38.45;99661.16;4758682;30;20052;-80
2021/08/10 10:30:49;;;;;;;0.10;0.10;;;;;;;30.21;40.84;99643.03;4774868;29;20082;-81
2021/08/10 10:33:15;;;;;;;0.10;0.10;;;;;;;29.75;41.94;99663.34;4764043;29;20122;-81
2021/08/10 10:35:41;;;;;;;0.10;0.10;;;;;;;29.33;42.98;99649.63;4775250;29;20317;-80
2021/08/10 10:38:08;;;;;;;0.10;0.10;;;;;;;29.29;43.58;99670.78;4765053;29;20061;-80
2021/08/10 10:40:35;;;;;;;0.10;0.10;;;;;;;29.00;44.32;99662.88;4753282;30;20086;-79
2021/08/10 10:43:01;;;;;;;0.10;0.10;;;;;;;28.65;45.55;99659.88;4770430;29;20058;-82
2021/08/10 10:45:35;;;;;;;0.10;0.10;;;;;;;28.62;46.17;99652.06;4750194;29;20054;-80
2021/08/10 10:48:02;;;;;;;0.10;0.10;;;;;;;28.49;49.35;99656.19;4792187;29;20078;-80
2021/08/10 10:50:28;;;;;;;0.10;0.10;;;;;;;28.42;48.81;99650.84;4784986;29;20093;-80
2021/08/10 10:53:00;;;;;;;0.10;0.10;;;;;;;28.51;48.31;99642.84;4779881;29;20049;-79
2021/08/10 10:55:33;;;;;;;;;;;;;;;28.23;49.23;99642.09;4778304;29;20088;-79
2021/08/10 10:57:59;;;;;;;0.10;0.10;;;;;;;28.22;48.39;99634.00;4765536;29;20327;-79
2021/08/10 11:00:27;;;;;;;0.10;0.10;;;;;;;28.72;48.86;99643.78;4771224;29;20330;-80
2021/08/10 11:03:13;;;;;;;0.10;0.10;;;;;;;28.73;48.17;99631.53;4766362;29;20517;-81
2021/08/10 11:05:39;;;;;;;0.17;0.17;;;;;;;29.24;45.95;99634.53;4765483;29;20182;-81
2021/08/10 11:08:06;;;;;;;0.20;0.20;;;;;;;29.47;45.08;99633.19;4765380;29;20099;-80
2021/08/10 11:10:38;;;;;;;0.28;0.28;;;;;;;30.06;45.70;99620.69;4798142;29;20043;-81
2021/08/10 11:13:25;;;;;;;0.10;0.10;;;;;;;29.75;44.61;99623.50;4785105;29;20050;-81
2021/08/10 11:15:52;;;;;;;0.10;0.10;;;;;;;29.29;46.11;99620.63;4778073;29;20044;-81
2021/08/10 11:18:21;;;;;;;0.10;0.10;;;;;;;29.03;46.33;99620.56;4792209;29;20503;-81
2021/08/10 11:20:49;;;;;;;0.10;0.10;;;;;;;29.01;48.00;99611.66;4765138;29;20049;-80
2021/08/10 11:26:00;;;;;;;0.10;0.10;;;;;;;28.96;49.96;99628.31;4794388;29;20043;-79
2021/08/10 11:28:28;;;;;;;0.10;0.10;;;;;;;28.93;48.42;99628.84;4793374;29;20051;-80
2021/08/10 11:30:56;;;;;;;0.10;0.10;;;;;;;28.64;49.63;99631.22;4770670;29;20053;-85
2021/08/10 11:33:36;;;;;;;0.10;0.10;;;;;;;28.58;49.74;99638.69;4778046;29;20508;-78
2021/08/10 11:36:12;;;;;;;0.10;0.10;;;;;;;28.48;50.79;99633.06;4763647;29;20044;-77
2021/08/10 11:39:04;;;;;;;0.00;0.00;;;;;;;28.36;48.76;99629.66;4772578;29;20116;-80
2021/08/10 11:41:35;;;;;;;0.03;0.03;;;;;;;28.19;50.34;99637.31;4775532;29;20050;-83
2021/08/10 11:44:18;;;;;;;0.10;0.10;;;;;;;27.96;50.56;99631.03;4785662;29;20509;-82
2021/08/10 11:46:44;;;;;;;;;;;;;;;28.09;50.04;99629.75;4760785;29;20134;-87
2021/08/10 11:49:20;;;;;;;0.10;0.10;;;;;;;28.07;49.33;99627.22;4791394;29;20456;-82
2021/08/10 11:51:47;;;;;;;0.10;0.10;;;;;;;27.92;49.69;99629.91;4776408;29;20670;-84
2021/08/10 11:54:23;;;;;;;0.10;0.10;;;;;;;28.00;49.35;99636.91;4778030;29;20084;-83